createdAt,value
2023-04-17T00:01:09.105Z,43.83
2023-04-17T00:03:35.710Z,43.47
2023-04-17T00:06:02.523Z,39.50
2023-04-17T00:08:29.197Z,43.95
2023-04-17T00:11:06.400Z,45.72
2023-04-17T00:13:34.003Z,46.05
2023-04-17T00:16:00.654Z,48.22
2023-04-17T00:18:27.108Z,48.58
2023-04-17T00:20:53.632Z,44.88
2023-04-17T00:23:20.256Z,58.58
2023-04-17T00:25:46.712Z,53.42
2023-04-17T00:28:13.147Z,47.63
2023-04-17T00:30:39.582Z,49.00
2023-04-17T00:33:06.080Z,49.40
2023-04-17T00:35:32.509Z,49.33
2023-04-17T00:37:58.973Z,52.83
2023-04-17T00:40:25.436Z,47.78
2023-04-17T00:42:56.025Z,51.95
2023-04-17T00:45:22.477Z,44.67
2023-04-17T00:47:49.966Z,49.90
2023-04-17T00:50:16.658Z,47.03
2023-04-17T00:52:44.992Z,44.17
2023-04-17T00:55:12.508Z,43.80
2023-04-17T00:57:39.376Z,44.50
2023-04-17T01:00:08.468Z,46.10
2023-04-17T01:02:35.287Z,46.28
2023-04-17T01:05:02.604Z,46.22
2023-04-17T01:07:30.807Z,50.05
2023-04-17T01:09:57.330Z,45.13
2023-04-17T01:12:25.231Z,42.80
2023-04-17T01:14:55.797Z,46.10
2023-04-17T01:17:23.268Z,45.58
2023-04-17T01:19:50.008Z,43.65
2023-04-17T01:22:16.638Z,48.33
2023-04-17T01:24:43.626Z,47.75
2023-04-17T01:27:13.563Z,48.70
2023-04-17T01:29:41.339Z,51.28
2023-04-17T01:32:08.327Z,48.40
2023-04-17T01:34:37.208Z,48.38
2023-04-17T01:37:03.931Z,47.78
2023-04-17T01:39:30.619Z,47.42
2023-04-17T01:41:57.332Z,49.83
2023-04-17T01:44:23.880Z,48.70
2023-04-17T01:46:51.176Z,52.92
2023-04-17T01:49:17.649Z,49.83
2023-04-17T01:51:44.210Z,49.10
2023-04-17T01:54:10.824Z,44.38
2023-04-17T01:56:37.309Z,47.75
2023-04-17T01:59:03.775Z,45.67
2023-04-17T02:01:31.180Z,57.13
2023-04-17T02:03:57.983Z,51.53
2023-04-17T02:06:25.505Z,53.03
2023-04-17T02:08:51.911Z,53.70
2023-04-17T02:11:18.488Z,52.88
2023-04-17T02:13:45.085Z,50.83
2023-04-17T02:16:12.627Z,51.63
2023-04-17T02:18:40.684Z,56.42
2023-04-17T02:21:07.270Z,50.50
2023-04-17T02:23:33.775Z,54.60
2023-04-17T02:26:00.432Z,51.67
2023-04-17T02:28:27.371Z,53.95
2023-04-17T02:30:53.955Z,50.05
2023-04-17T02:33:21.351Z,47.00
2023-04-17T02:35:47.929Z,50.10
2023-04-17T02:38:14.571Z,52.50
2023-04-17T02:40:41.192Z,53.15
2023-04-17T02:43:07.658Z,52.50
2023-04-17T02:45:34.101Z,54.85
2023-04-17T02:48:01.152Z,57.85
2023-04-17T02:50:27.668Z,54.13
2023-04-17T02:52:54.660Z,51.15
2023-04-17T02:55:21.268Z,58.42
2023-04-17T02:57:47.767Z,57.22
2023-04-17T03:00:15.075Z,55.33
2023-04-17T03:02:42.138Z,58.10
2023-04-17T03:05:09.170Z,57.92
2023-04-17T03:07:35.757Z,61.22
2023-04-17T03:10:03.293Z,62.67
2023-04-17T03:12:29.783Z,58.00
2023-04-17T03:14:56.276Z,60.85
2023-04-17T03:17:22.833Z,64.78
2023-04-17T03:19:49.335Z,60.47
2023-04-17T03:22:16.046Z,64.85
2023-04-17T03:24:42.571Z,62.17
2023-04-17T03:27:09.111Z,62.67
2023-04-17T03:29:35.651Z,63.83
2023-04-17T03:32:02.214Z,62.97
2023-04-17T03:34:29.618Z,70.80
2023-04-17T03:36:56.026Z,66.30
2023-04-17T03:39:22.474Z,65.55
2023-04-17T03:41:48.949Z,68.50
2023-04-17T03:44:17.212Z,68.13
2023-04-17T03:46:43.641Z,67.15
2023-04-17T03:49:10.452Z,71.45
2023-04-17T03:51:37.154Z,79.28
2023-04-17T03:54:03.934Z,80.07
2023-04-17T03:56:30.573Z,77.15
2023-04-17T03:58:57.096Z,81.03
2023-04-17T04:01:23.608Z,83.40
2023-04-17T04:03:50.306Z,84.00
2023-04-17T04:06:20.156Z,83.63
2023-04-17T04:08:46.637Z,75.15
2023-04-17T04:11:13.873Z,78.43
2023-04-17T04:13:40.650Z,83.15
2023-04-17T04:16:07.772Z,82.40
2023-04-17T04:18:35.280Z,79.75
2023-04-17T04:21:02.003Z,80.30
2023-04-17T04:23:30.453Z,85.88
2023-04-17T04:25:57.895Z,76.82
2023-04-17T04:28:24.502Z,84.72
2023-04-17T04:30:53.612Z,82.55
2023-04-17T04:33:20.900Z,86.32
2023-04-17T04:35:48.471Z,80.32
2023-04-17T04:38:17.171Z,77.03
2023-04-17T04:40:50.058Z,78.85
2023-04-17T04:43:16.746Z,79.30
2023-04-17T04:45:43.349Z,78.40
2023-04-17T04:48:09.848Z,83.07
2023-04-17T04:50:36.422Z,75.85
2023-04-17T04:53:02.869Z,85.05
2023-04-17T04:55:30.820Z,109.65
2023-04-17T04:57:57.556Z,89.18
2023-04-17T05:00:24.819Z,95.57
2023-04-17T05:02:51.379Z,97.20
2023-04-17T05:05:17.910Z,89.10
2023-04-17T05:07:44.346Z,91.03
2023-04-17T05:10:10.841Z,84.18
2023-04-17T05:12:37.304Z,74.32
2023-04-17T05:15:04.025Z,82.85
2023-04-17T05:17:30.770Z,81.55
2023-04-17T05:19:57.296Z,83.10
2023-04-17T05:22:23.708Z,85.20
2023-04-17T05:24:50.185Z,79.10
2023-04-17T05:27:16.591Z,77.55
2023-04-17T05:29:43.163Z,79.03
2023-04-17T05:32:09.709Z,80.05
2023-04-17T05:34:36.325Z,84.03
2023-04-17T05:37:03.387Z,89.38
2023-04-17T05:39:29.915Z,82.93
2023-04-17T05:41:56.474Z,80.95
2023-04-17T05:44:22.951Z,82.57
2023-04-17T05:46:49.385Z,79.05
2023-04-17T05:49:16.001Z,84.82
2023-04-17T05:51:42.459Z,83.05
2023-04-17T05:54:08.930Z,85.57
2023-04-17T05:56:35.563Z,81.93
2023-04-17T05:59:02.014Z,81.53
2023-04-17T06:01:29.939Z,92.07
2023-04-17T06:03:57.195Z,82.25
2023-04-17T06:06:23.918Z,85.13
2023-04-17T06:08:52.465Z,80.75
2023-04-17T06:11:19.054Z,80.93
2023-04-17T06:13:46.028Z,76.90
2023-04-17T06:16:12.556Z,83.15
2023-04-17T06:18:40.049Z,77.32
2023-04-17T06:21:09.979Z,79.55
2023-04-17T06:23:36.393Z,82.13
2023-04-17T06:26:03.004Z,85.15
2023-04-17T06:28:29.459Z,79.00
2023-04-17T06:30:55.955Z,88.40
2023-04-17T06:33:24.523Z,89.63
2023-04-17T06:35:52.529Z,84.30
2023-04-17T06:38:18.960Z,76.32
2023-04-17T06:40:46.592Z,80.85
2023-04-17T06:43:15.371Z,68.10
2023-04-17T06:45:42.941Z,78.47
2023-04-17T06:48:09.459Z,74.03
2023-04-17T06:50:36.368Z,71.10
2023-04-17T06:53:02.836Z,72.65
2023-04-17T06:55:29.618Z,72.22
2023-04-17T06:57:56.060Z,66.03
2023-04-17T07:00:22.883Z,68.13
2023-04-17T07:02:49.412Z,64.10
2023-04-17T07:05:16.641Z,58.75
2023-04-17T07:07:43.107Z,63.67
2023-04-17T07:10:09.719Z,62.25
2023-04-17T07:12:36.237Z,56.00
2023-04-17T07:15:02.904Z,56.58
2023-04-17T07:17:29.374Z,55.47
2023-04-17T07:19:56.310Z,54.97
2023-04-17T07:22:23.377Z,60.95
2023-04-17T07:24:50.776Z,55.42
2023-04-17T07:27:17.416Z,57.60
2023-04-17T07:29:46.959Z,54.85
2023-04-17T07:32:14.736Z,60.50
2023-04-17T07:34:41.929Z,61.45
2023-04-17T07:37:08.440Z,50.78
2023-04-17T07:39:35.220Z,58.55
2023-04-17T07:42:06.291Z,58.55
2023-04-17T07:44:32.915Z,51.22
2023-04-17T07:46:59.559Z,53.63
2023-04-17T07:49:26.045Z,41.08
2023-04-17T07:51:52.684Z,51.65
2023-04-17T07:54:19.130Z,41.40
2023-04-17T07:56:49.385Z,48.28
2023-04-17T07:59:16.750Z,49.55
2023-04-17T08:01:43.612Z,45.50
2023-04-17T08:04:10.313Z,44.28
2023-04-17T08:06:36.969Z,47.05
2023-04-17T08:09:04.248Z,47.40
2023-04-17T08:11:30.783Z,42.80
2023-04-17T08:13:57.213Z,44.03
2023-04-17T08:16:23.752Z,40.88
2023-04-17T08:18:50.374Z,41.80
2023-04-17T08:21:16.791Z,35.83
2023-04-17T08:23:43.248Z,33.92
2023-04-17T08:26:09.779Z,33.25
2023-04-17T08:28:36.219Z,33.53
2023-04-17T08:31:03.124Z,32.58
2023-04-17T08:33:29.603Z,31.33
2023-04-17T08:35:56.137Z,33.42
2023-04-17T08:38:22.773Z,31.13
2023-04-17T08:40:53.516Z,35.00
2023-04-17T08:43:21.499Z,31.35
2023-04-17T08:45:53.662Z,31.02
2023-04-17T08:48:23.792Z,32.75
2023-04-17T08:50:52.439Z,35.88
2023-04-17T08:53:20.556Z,32.00
2023-04-17T08:55:47.945Z,31.33
2023-04-17T08:58:15.178Z,31.30
2023-04-17T09:00:45.409Z,32.95
2023-04-17T09:05:45.972Z,27.08
2023-04-17T09:08:20.571Z,23.50
2023-04-17T09:10:49.078Z,26.45
2023-04-17T09:13:17.978Z,27.02
2023-04-17T09:15:46.444Z,24.60
2023-04-17T09:18:26.116Z,27.65
2023-04-17T09:20:53.232Z,24.65
2023-04-17T09:23:20.666Z,24.55
2023-04-17T09:26:04.840Z,24.42
2023-04-17T09:28:35.337Z,22.85
2023-04-17T09:31:07.619Z,25.92
2023-04-17T09:33:34.193Z,22.65
2023-04-17T09:36:22.183Z,28.63
2023-04-17T09:38:49.917Z,23.95
2023-04-17T09:41:28.783Z,26.25
2023-04-17T09:44:01.753Z,22.17
2023-04-17T09:46:38.495Z,27.73
2023-04-17T09:49:22.089Z,22.52
2023-04-17T09:51:49.916Z,23.52
2023-04-17T09:54:17.440Z,21.67
2023-04-17T09:56:44.012Z,21.67
2023-04-17T09:59:10.995Z,21.10
2023-04-17T10:01:38.110Z,22.08
2023-04-17T10:04:05.609Z,19.10
2023-04-17T10:06:33.481Z,22.27
2023-04-17T10:09:00.507Z,19.50
2023-04-17T10:11:44.962Z,22.90
2023-04-17T10:14:25.909Z,22.80
2023-04-17T10:16:53.718Z,19.80
2023-04-17T10:19:34.083Z,20.88
2023-04-17T10:22:16.173Z,19.30
2023-04-17T10:24:43.090Z,19.95
2023-04-17T10:27:24.646Z,22.85
2023-04-17T10:29:54.895Z,22.88
2023-04-17T10:32:24.201Z,21.80
2023-04-17T10:34:51.892Z,24.50
2023-04-17T10:37:18.995Z,26.65
2023-04-17T10:40:02.122Z,24.80
2023-04-17T10:42:30.121Z,25.25
2023-04-17T10:45:01.743Z,24.40
2023-04-17T10:47:33.624Z,26.50
2023-04-17T10:50:03.360Z,25.80
2023-04-17T10:52:32.929Z,24.67
2023-04-17T10:55:17.116Z,22.48
2023-04-17T10:57:59.200Z,28.27
2023-04-17T11:00:52.509Z,28.25
2023-04-17T11:03:23.241Z,31.20
2023-04-17T11:05:49.970Z,30.35
2023-04-17T11:08:16.394Z,27.92
2023-04-17T11:10:43.033Z,24.60
2023-04-17T11:13:10.716Z,24.05
2023-04-17T11:15:37.314Z,25.13
2023-04-17T11:18:04.150Z,22.80
2023-04-17T11:20:32.639Z,24.15
2023-04-17T11:23:04.204Z,24.02
2023-04-17T11:25:33.740Z,28.33
2023-04-17T11:28:05.952Z,30.10
2023-04-17T11:30:40.491Z,20.35
2023-04-17T11:33:08.367Z,24.60
2023-04-17T11:35:36.800Z,19.40
2023-04-17T11:38:17.813Z,20.83
2023-04-17T11:40:45.763Z,19.65
2023-04-17T11:43:13.752Z,18.65
2023-04-17T11:45:43.114Z,19.52
2023-04-17T11:48:11.872Z,18.17
2023-04-17T11:50:40.244Z,21.42
2023-04-17T11:53:07.285Z,18.95
2023-04-17T11:55:35.119Z,19.20
2023-04-17T11:58:06.555Z,20.02
2023-04-17T12:00:33.968Z,19.67
2023-04-17T12:03:02.466Z,20.65
2023-04-17T12:05:31.003Z,19.77
2023-04-17T12:08:05.869Z,17.92
2023-04-17T12:10:43.714Z,17.35
2023-04-17T12:13:11.388Z,17.65
2023-04-17T12:15:40.928Z,17.30
2023-04-17T12:18:08.872Z,16.80
2023-04-17T12:20:36.493Z,17.50
2023-04-17T12:23:04.574Z,18.20
2023-04-17T12:25:33.130Z,18.30
2023-04-17T12:28:00.882Z,19.83
2023-04-17T12:30:27.919Z,20.30
2023-04-17T12:32:55.352Z,22.48
2023-04-17T12:35:23.113Z,20.88
2023-04-17T12:37:51.473Z,19.13
2023-04-17T12:40:19.490Z,22.25
2023-04-17T12:42:49.504Z,22.85
2023-04-17T12:45:17.220Z,19.25
2023-04-17T12:47:44.420Z,19.90
2023-04-17T12:50:12.054Z,17.42
2023-04-17T12:52:40.910Z,16.92
2023-04-17T12:55:08.672Z,17.63
2023-04-17T12:57:36.585Z,18.67
2023-04-17T13:00:09.168Z,20.08
2023-04-17T13:02:36.100Z,20.08
2023-04-17T13:05:02.934Z,23.80
2023-04-17T13:07:29.794Z,20.33
2023-04-17T13:09:56.878Z,19.17
2023-04-17T13:12:23.324Z,20.38
2023-04-17T13:14:49.923Z,17.23
2023-04-17T13:17:17.382Z,23.38
2023-04-17T13:19:44.466Z,22.42
2023-04-17T13:22:11.012Z,17.17
2023-04-17T13:24:37.797Z,18.77
2023-04-17T13:27:04.597Z,16.67
2023-04-17T13:29:31.320Z,18.05
2023-04-17T13:31:57.737Z,21.00
2023-04-17T13:34:24.203Z,17.80
2023-04-17T13:36:50.697Z,19.05
2023-04-17T13:39:17.236Z,17.05
2023-04-17T13:41:43.756Z,17.83
2023-04-17T13:44:10.382Z,18.45
2023-04-17T13:46:36.881Z,19.08
2023-04-17T13:49:03.899Z,18.08
2023-04-17T13:51:31.928Z,17.30
2023-04-17T13:54:01.657Z,20.77
2023-04-17T13:56:28.769Z,19.08
2023-04-17T13:58:55.828Z,17.38
2023-04-17T14:01:22.370Z,18.95
2023-04-17T14:03:49.046Z,17.25
2023-04-17T14:06:17.779Z,17.08
2023-04-17T14:08:45.632Z,17.17
2023-04-17T14:11:12.903Z,15.27
2023-04-17T14:13:39.416Z,16.88
2023-04-17T14:16:06.390Z,16.85
2023-04-17T14:18:32.902Z,15.13
2023-04-17T14:20:59.331Z,14.73
2023-04-17T14:23:25.821Z,14.98
2023-04-17T14:25:52.324Z,15.75
2023-04-17T14:28:19.010Z,17.67
2023-04-17T14:30:45.698Z,17.13
2023-04-17T14:33:12.135Z,15.40
2023-04-17T14:35:40.121Z,15.43
2023-04-17T14:38:07.029Z,14.82
2023-04-17T14:40:33.878Z,15.30
2023-04-17T14:43:00.341Z,15.85
2023-04-17T14:45:26.834Z,15.82
2023-04-17T14:47:53.263Z,16.77
2023-04-17T14:50:20.301Z,16.52
2023-04-17T14:52:46.810Z,25.15
2023-04-17T14:55:13.506Z,15.95
2023-04-17T14:57:40.113Z,21.10
2023-04-17T15:00:08.309Z,17.33
2023-04-17T15:02:38.854Z,21.48
2023-04-17T15:05:06.649Z,16.83
2023-04-17T15:07:33.139Z,17.15
2023-04-17T15:09:59.779Z,19.70
2023-04-17T15:12:26.438Z,16.70
2023-04-17T15:14:53.112Z,16.73
2023-04-17T15:17:19.878Z,17.02
2023-04-17T15:19:46.426Z,17.77
2023-04-17T15:22:12.964Z,21.35
2023-04-17T15:24:39.425Z,20.50
2023-04-17T15:27:06.234Z,19.48
2023-04-17T15:29:32.776Z,17.42
2023-04-17T15:32:00.717Z,17.08
2023-04-17T15:34:27.207Z,17.17
2023-04-17T15:36:53.710Z,16.60
2023-04-17T15:39:20.195Z,18.05
2023-04-17T15:41:46.772Z,18.70
2023-04-17T15:44:13.191Z,18.20
2023-04-17T15:46:39.727Z,20.23
2023-04-17T15:49:09.169Z,18.25
2023-04-17T15:51:35.740Z,18.17
2023-04-17T15:54:02.137Z,17.70
2023-04-17T15:56:31.909Z,16.88
2023-04-17T15:58:58.407Z,17.23
2023-04-17T16:01:25.121Z,19.15
2023-04-17T16:03:52.129Z,21.92
2023-04-17T16:06:20.370Z,20.50
2023-04-17T16:08:47.247Z,22.88
2023-04-17T16:11:14.872Z,20.88
2023-04-17T16:13:41.319Z,17.63
2023-04-17T16:16:08.150Z,16.85
2023-04-17T16:18:34.581Z,17.25
2023-04-17T16:21:01.044Z,20.00
2023-04-17T16:23:27.576Z,18.98
2023-04-17T16:25:55.195Z,18.38
2023-04-17T16:28:21.663Z,16.92
2023-04-17T16:30:49.039Z,19.50
2023-04-17T16:33:15.624Z,20.75
2023-04-17T16:35:42.821Z,17.67
2023-04-17T16:38:12.354Z,17.85
2023-04-17T16:40:39.468Z,18.83
2023-04-17T16:43:06.259Z,17.10
2023-04-17T16:45:32.787Z,18.98
2023-04-17T16:47:59.414Z,18.13
2023-04-17T16:50:25.922Z,22.48
2023-04-17T16:52:52.455Z,17.17
2023-04-17T16:55:19.085Z,19.38
2023-04-17T16:57:47.648Z,19.45
2023-04-17T17:00:14.681Z,18.73
2023-04-17T17:02:41.317Z,21.73
2023-04-17T17:05:08.611Z,18.75
2023-04-17T17:07:35.154Z,20.05
2023-04-17T17:10:01.679Z,17.77
2023-04-17T17:12:28.130Z,20.20
2023-04-17T17:14:54.718Z,24.40
2023-04-17T17:17:21.180Z,20.90
2023-04-17T17:19:47.660Z,24.55
2023-04-17T17:22:14.070Z,23.88
2023-04-17T17:24:40.522Z,20.90
2023-04-17T17:27:06.950Z,23.55
2023-04-17T17:29:33.513Z,20.35
2023-04-17T17:32:02.194Z,18.80
2023-04-17T17:34:28.681Z,24.27
2023-04-17T17:36:55.392Z,23.98
2023-04-17T17:39:22.194Z,22.20
2023-04-17T17:41:49.026Z,18.58
2023-04-17T17:44:15.659Z,19.20
2023-04-17T17:46:42.265Z,20.60
2023-04-17T17:49:08.754Z,24.70
2023-04-17T17:51:35.420Z,21.10
2023-04-17T17:54:01.912Z,20.98
2023-04-17T17:56:28.476Z,23.75
2023-04-17T17:58:55.031Z,23.35
2023-04-17T18:01:24.524Z,22.88
2023-04-17T18:03:51.668Z,21.00
2023-04-17T18:06:18.592Z,22.27
2023-04-17T18:08:45.106Z,19.65
2023-04-17T18:11:13.624Z,19.73
2023-04-17T18:13:40.055Z,21.40
2023-04-17T18:16:06.961Z,21.98
2023-04-17T18:18:33.448Z,20.08
2023-04-17T18:20:59.871Z,23.45
2023-04-17T18:23:26.275Z,20.48
2023-04-17T18:25:59.683Z,23.17
2023-04-17T18:28:26.613Z,31.25
2023-04-17T18:30:53.308Z,20.35
2023-04-17T18:33:20.360Z,24.30
2023-04-17T18:35:46.982Z,19.48
2023-04-17T18:38:13.467Z,20.73
2023-04-17T18:40:39.897Z,20.98
2023-04-17T18:43:06.590Z,20.40
2023-04-17T18:45:33.109Z,20.85
2023-04-17T18:47:59.598Z,19.42
2023-04-17T18:50:26.971Z,22.65
2023-04-17T18:52:53.456Z,24.95
2023-04-17T18:55:20.148Z,25.10
2023-04-17T18:57:46.618Z,20.77
2023-04-17T19:00:13.405Z,20.98
2023-04-17T19:02:40.647Z,20.67
2023-04-17T19:05:07.787Z,25.45
2023-04-17T19:07:34.591Z,20.45
2023-04-17T19:10:01.171Z,22.33
2023-04-17T19:12:27.711Z,23.77
2023-04-17T19:14:57.031Z,21.63
2023-04-17T19:17:25.322Z,19.87
2023-04-17T19:19:51.847Z,27.33
2023-04-17T19:22:18.541Z,21.00
2023-04-17T19:24:50.236Z,26.45
2023-04-17T19:27:17.008Z,23.52
2023-04-17T19:29:43.575Z,20.65
2023-04-17T19:32:10.703Z,21.52
2023-04-17T19:34:37.161Z,19.50
2023-04-17T19:37:04.043Z,22.10
2023-04-17T19:39:31.003Z,25.75
2023-04-17T19:41:57.953Z,25.73
2023-04-17T19:44:25.951Z,25.00
2023-04-17T19:46:53.923Z,23.53
2023-04-17T19:49:20.335Z,28.48
2023-04-17T19:51:46.885Z,24.70
2023-04-17T19:54:13.418Z,23.55
2023-04-17T19:56:39.940Z,27.50
2023-04-17T19:59:06.637Z,27.67
2023-04-17T20:01:33.377Z,30.13
2023-04-17T20:04:00.188Z,23.63
2023-04-17T20:06:26.973Z,27.10
2023-04-17T20:08:53.780Z,25.70
2023-04-17T20:11:20.449Z,29.83
2023-04-17T20:13:46.873Z,32.25
2023-04-17T20:16:13.374Z,27.58
2023-04-17T20:18:41.652Z,24.48
2023-04-17T20:21:08.072Z,30.70
2023-04-17T20:23:34.543Z,26.05
2023-04-17T20:26:01.066Z,26.55
2023-04-17T20:28:28.985Z,32.15
2023-04-17T20:30:55.747Z,28.17
2023-04-17T20:33:22.591Z,28.00
2023-04-17T20:35:49.312Z,36.47
2023-04-17T20:38:15.809Z,27.65
2023-04-17T20:40:42.426Z,33.15
2023-04-17T20:43:08.902Z,29.90
2023-04-17T20:45:35.768Z,31.42
2023-04-17T20:48:02.288Z,29.23
2023-04-17T20:50:28.751Z,28.23
2023-04-17T20:52:55.209Z,31.90
2023-04-17T20:55:21.850Z,30.02
2023-04-17T20:57:48.373Z,30.83
2023-04-17T21:00:15.910Z,30.63
2023-04-17T21:02:43.475Z,31.67
2023-04-17T21:05:10.149Z,30.23
2023-04-17T21:07:37.854Z,32.22
2023-04-17T21:10:05.159Z,25.63
2023-04-17T21:12:33.089Z,35.08
2023-04-17T21:14:59.714Z,28.02
2023-04-17T21:17:26.316Z,38.95
2023-04-17T21:19:55.630Z,31.85
2023-04-17T21:22:22.115Z,35.92
2023-04-17T21:24:48.588Z,37.45
2023-04-17T21:27:15.496Z,31.20
2023-04-17T21:29:42.081Z,36.10
2023-04-17T21:32:08.537Z,32.97
2023-04-17T21:34:35.249Z,35.08
2023-04-17T21:37:03.523Z,30.17
2023-04-17T21:39:32.834Z,30.52
2023-04-17T21:42:00.022Z,33.45
2023-04-17T21:44:26.528Z,32.15
2023-04-17T21:46:53.168Z,32.40
2023-04-17T21:49:20.708Z,33.97
2023-04-17T21:51:47.140Z,27.95
2023-04-17T21:54:13.891Z,34.45
2023-04-17T21:56:40.612Z,32.35
2023-04-17T21:59:07.117Z,34.10
2023-04-17T22:01:33.694Z,34.47
2023-04-17T22:04:00.356Z,34.65
2023-04-17T22:06:27.019Z,34.78
2023-04-17T22:08:53.465Z,33.35
2023-04-17T22:11:20.423Z,42.05
2023-04-17T22:13:47.161Z,35.13
2023-04-17T22:16:13.658Z,35.13
2023-04-17T22:18:40.216Z,32.70
2023-04-17T22:21:07.013Z,33.15
2023-04-17T22:23:33.545Z,32.78
2023-04-17T22:26:00.074Z,36.47
2023-04-17T22:28:30.125Z,35.55
2023-04-17T22:30:57.681Z,37.72
2023-04-17T22:33:24.440Z,38.40
2023-04-17T22:35:50.845Z,37.95
2023-04-17T22:38:18.567Z,36.53
2023-04-17T22:40:45.053Z,34.17
2023-04-17T22:43:11.476Z,35.53
2023-04-17T22:45:37.972Z,33.47
2023-04-17T22:48:04.596Z,34.50
2023-04-17T22:50:32.418Z,30.75
2023-04-17T22:52:58.861Z,32.33
2023-04-17T22:55:25.416Z,34.97
2023-04-17T22:57:52.436Z,29.10
2023-04-17T23:00:20.220Z,35.90
2023-04-17T23:02:47.365Z,36.55
2023-04-17T23:05:14.127Z,33.92
2023-04-17T23:07:41.085Z,36.08
2023-04-17T23:10:07.893Z,36.97
2023-04-17T23:12:34.441Z,38.03
2023-04-17T23:15:01.193Z,36.67
2023-04-17T23:17:28.179Z,36.50
2023-04-17T23:19:54.655Z,34.47
2023-04-17T23:22:21.207Z,42.15
2023-04-17T23:24:47.637Z,37.35
2023-04-17T23:27:14.038Z,40.10
2023-04-17T23:29:40.403Z,42.35
2023-04-17T23:32:07.734Z,40.60
2023-04-17T23:34:34.429Z,40.30
2023-04-17T23:37:02.636Z,36.65
2023-04-17T23:39:29.284Z,38.42
2023-04-17T23:41:55.829Z,43.42
2023-04-17T23:44:22.306Z,41.95
2023-04-17T23:46:48.944Z,41.80
2023-04-17T23:49:15.447Z,42.72
2023-04-17T23:51:41.888Z,44.85
2023-04-17T23:54:08.315Z,47.92
2023-04-17T23:56:35.021Z,46.25
2023-04-17T23:59:01.582Z,43.72
